Time;durP1;ratioP1;P1;durP2;ratioP2;P2;SDS_P1;SDS_P2;PMS_P1;PMS_P2;Temp;Humidity;BMP_temperature;BMP_pressure;BME280_temperature;BME280_humidity;BME280_pressure;Samples;Min_cycle;Max_cycle;Signal;HPM_P1;HPM_P2
2021/12/19 00:02:24;;;;;;;71.05;33.58;;;8.70;99.90;;;6.97;100.00;102464.09;4967303;28;20058;-87
2021/12/19 00:10:18;;;;;;;71.20;33.58;;;8.80;99.90;;;6.87;100.00;102457.59;4964727;28;20051;-87
2021/12/19 00:12:46;;;;;;;76.72;36.22;;;8.80;99.90;;;6.83;100.00;102451.56;4949959;29;20053;-87
2021/12/19 00:15:13;;;;;;;77.05;34.45;;;8.80;99.90;;;6.82;100.00;102451.69;4955744;28;20128;-87
2021/12/19 00:17:40;;;;;;;65.10;34.08;;;8.80;99.90;;;6.87;100.00;102452.19;4969483;28;20049;-87
2021/12/19 00:20:10;;;;;;;62.05;31.83;;;8.80;99.90;;;6.88;100.00;102456.63;4969019;28;20043;-87
2021/12/19 00:22:38;;;;;;;52.95;28.02;;;8.80;99.90;;;6.86;100.00;102450.47;4967434;28;20439;-88
2021/12/19 00:25:07;;;;;;;54.30;28.92;;;8.80;99.90;;;6.95;100.00;102443.50;4967233;28;20081;-88
2021/12/19 00:27:36;;;;;;;55.60;28.30;;;8.80;99.90;;;7.01;100.00;102448.50;4969325;28;20137;-87
2021/12/19 00:30:05;;;;;;;49.42;27.90;;;8.80;99.90;;;7.04;100.00;102448.25;4969430;28;20050;-87
2021/12/19 00:32:32;;;;;;;53.20;27.88;;;8.80;99.90;;;7.04;100.00;102446.41;4969189;28;20047;-87
2021/12/19 00:35:00;;;;;;;49.55;26.80;;;8.80;99.90;;;7.04;100.00;102443.72;4968969;28;20694;-87
2021/12/19 00:37:28;;;;;;;48.25;27.02;;;8.80;99.90;;;7.02;100.00;102440.22;4967900;28;20086;-87
2021/12/19 00:39:56;;;;;;;53.55;26.45;;;8.80;99.90;;;7.04;100.00;102440.13;4969345;28;20121;-88
2021/12/19 00:42:33;;;;;;;48.42;26.02;;;8.80;99.90;;;7.05;100.00;102434.59;4967682;28;20380;-87
2021/12/19 00:45:05;;;;;;;48.38;26.27;;;8.80;99.90;;;7.10;100.00;102433.38;4966516;28;20043;-87
2021/12/19 00:47:32;;;;;;;45.25;25.15;;;8.80;99.90;;;7.13;100.00;102435.88;4968630;28;20525;-86
2021/12/19 00:50:00;;;;;;;55.35;27.15;;;8.80;99.90;;;6.93;100.00;102440.94;4969250;28;20121;-87
2021/12/19 00:52:28;;;;;;;46.95;26.80;;;8.80;99.90;;;6.94;100.00;102430.97;4968975;28;20046;-88
2021/12/19 00:54:55;;;;;;;50.70;27.10;;;8.90;99.90;;;6.94;100.00;102431.81;4969282;28;20074;-87
2021/12/19 00:57:23;;;;;;;46.25;26.27;;;8.80;99.90;;;7.03;100.00;102431.13;4968028;28;20067;-87
2021/12/19 00:59:50;;;;;;;47.13;25.17;;;8.80;99.90;;;7.10;100.00;102419.84;4967549;28;20129;-87
2021/12/19 01:02:17;;;;;;;49.78;26.00;;;8.80;99.90;;;7.12;100.00;102417.88;4968925;28;20047;-87
2021/12/19 01:04:45;;;;;;;47.92;25.45;;;8.80;99.90;;;7.12;100.00;102412.47;4969290;28;20526;-86
2021/12/19 01:07:12;;;;;;;45.92;24.05;;;8.80;99.90;;;7.12;100.00;102417.88;4968917;28;20043;-88
2021/12/19 01:09:40;;;;;;;47.38;24.73;;;8.80;99.90;;;7.12;100.00;102412.47;4967848;28;20059;-87
2021/12/19 01:12:10;;;;;;;46.00;25.10;;;8.80;99.90;;;7.16;100.00;102411.25;4969052;28;20078;-87
2021/12/19 01:14:37;;;;;;;53.72;26.05;;;8.80;99.90;;;7.10;100.00;102407.19;4968525;28;20050;-88
2021/12/19 01:17:05;;;;;;;47.50;25.30;;;8.80;99.90;;;6.96;100.00;102405.50;4967755;28;20129;-88
2021/12/19 01:19:32;;;;;;;44.60;23.58;;;8.80;99.90;;;7.00;100.00;102404.28;4968947;28;20053;-88
2021/12/19 01:22:00;;;;;;;44.85;25.20;;;8.90;99.90;;;6.98;100.00;102400.84;4968717;28;20102;-87
2021/12/19 01:24:27;;;;;;;46.47;24.17;;;8.80;99.90;;;7.05;100.00;102404.81;4967521;28;20061;-87
2021/12/19 01:26:56;;;;;;;37.35;21.45;;;8.80;99.90;;;7.00;100.00;102398.00;4968922;28;20125;-86
2021/12/19 01:29:23;;;;;;;36.72;19.73;;;8.80;99.90;;;6.95;100.00;102392.97;4967641;28;20054;-85
2021/12/19 01:31:50;;;;;;;34.00;19.10;;;8.80;99.90;;;6.96;100.00;102391.97;4968379;28;20045;-86
2021/12/19 01:34:18;;;;;;;38.95;20.13;;;8.80;99.90;;;6.99;100.00;102399.00;4970131;28;20137;-86
2021/12/19 01:36:45;;;;;;;32.33;18.17;;;8.80;99.90;;;6.90;100.00;102395.13;4972344;28;20491;-86
2021/12/19 01:39:15;;;;;;;34.08;18.63;;;8.80;99.90;;;6.93;100.00;102394.91;4972498;28;20105;-86
2021/12/19 01:41:48;;;;;;;33.28;17.67;;;8.80;99.90;;;7.03;100.00;102406.78;4970446;28;20411;-86
2021/12/19 01:44:17;;;;;;;33.92;17.98;;;8.80;99.90;;;7.05;100.00;102402.09;4972441;28;20081;-86
2021/12/19 01:46:46;;;;;;;35.25;19.27;;;8.80;99.90;;;7.04;100.00;102399.50;4972284;28;20047;-87
2021/12/19 01:49:15;;;;;;;38.90;19.88;;;8.80;99.90;;;7.07;100.00;102398.44;4972357;28;20043;-86
2021/12/19 01:51:42;;;;;;;39.22;20.73;;;8.80;99.90;;;7.06;100.00;102397.56;4971890;28;20078;-85
2021/12/19 01:54:10;;;;;;;42.10;22.20;;;8.80;99.90;;;7.05;100.00;102393.13;4970129;28;20061;-85
2021/12/19 01:56:38;;;;;;;42.95;22.90;;;8.80;99.90;;;6.97;100.00;102395.56;4971814;28;20050;-85
2021/12/19 01:59:10;;;;;;;46.65;22.73;;;8.80;99.90;;;7.00;100.00;102398.00;4970891;28;20097;-85
2021/12/19 02:01:43;;;;;;;48.17;23.48;;;8.80;99.90;;;6.98;100.00;102390.00;4971305;28;20170;-85
2021/12/19 02:04:12;;;;;;;52.92;25.92;;;8.80;99.90;;;6.95;100.00;102387.53;4971533;28;20127;-86
2021/12/19 02:06:39;;;;;;;57.92;26.80;;;8.80;99.90;;;7.00;100.00;102381.78;4970429;28;20599;-85
2021/12/19 02:09:09;;;;;;;55.65;26.73;;;8.80;99.90;;;6.94;100.00;102371.41;4971716;28;20047;-86
2021/12/19 02:11:39;;;;;;;57.35;27.88;;;8.80;99.90;;;6.98;100.00;102384.59;4971264;28;20122;-85
2021/12/19 02:14:12;;;;;;;60.90;28.85;;;8.80;99.90;;;7.02;100.00;102379.81;4970300;28;20069;-86
2021/12/19 02:16:42;;;;;;;64.80;30.48;;;8.80;99.90;;;7.06;100.00;102378.59;4971829;28;20073;-86
2021/12/19 02:19:11;;;;;;;64.25;28.67;;;8.80;99.90;;;6.98;100.00;102379.19;4971665;28;20109;-85
2021/12/19 02:21:41;;;;;;;55.03;26.17;;;8.80;99.90;;;6.92;100.00;102379.66;4969793;28;20515;-86
2021/12/19 02:24:12;;;;;;;46.55;24.00;;;8.80;99.90;;;6.93;100.00;102380.50;4971685;28;20129;-85
2021/12/19 02:26:41;;;;;;;41.85;21.83;;;8.80;99.90;;;6.92;100.00;102376.09;4971789;28;20046;-85
2021/12/19 02:29:08;;;;;;;37.45;16.95;;;9.00;99.90;;;6.91;100.00;102371.63;4971618;28;20068;-85
2021/12/19 02:31:40;;;;;;;22.35;12.32;;;8.80;99.90;;;6.95;100.00;102368.59;4968759;28;20150;-85
2021/12/19 02:34:13;;;;;;;24.30;12.63;;;8.80;99.90;;;6.95;100.00;102365.91;4969220;28;20102;-85
2021/12/19 02:36:52;;;;;;;21.70;12.35;;;8.80;99.90;;;6.95;100.00;102363.19;4971329;28;20050;-88
2021/12/19 02:39:44;;;;;;;25.35;14.00;;;9.00;99.90;;;6.93;100.00;102365.16;4971302;28;20726;-85
2021/12/19 02:50:37;;;;;;;29.38;14.85;;;8.80;99.90;;;6.92;100.00;102360.69;4970790;28;20047;-86
2021/12/19 02:53:05;;;;;;;27.63;14.90;;;8.80;99.90;;;6.85;100.00;102354.00;4970809;28;20067;-86
2021/12/19 02:55:36;;;;;;;28.40;15.10;;;8.80;99.90;;;6.84;100.00;102349.59;4971110;28;20096;-85
2021/12/19 02:58:06;;;;;;;26.85;15.07;;;8.70;99.90;;;6.85;100.00;102351.31;4971136;28;20073;-86
2021/12/19 03:00:34;;;;;;;27.10;15.50;;;8.70;99.90;;;6.88;100.00;102345.66;4970954;28;20133;-86
2021/12/19 03:03:01;;;;;;;29.40;15.70;;;8.70;99.90;;;6.89;100.00;102343.81;4968739;28;20042;-85
2021/12/19 03:05:31;;;;;;;28.35;15.88;;;8.70;99.90;;;6.94;100.00;102338.94;4970853;28;20089;-86
2021/12/19 03:08:01;;;;;;;30.58;15.88;;;8.70;99.90;;;6.86;100.00;102342.22;4970857;28;20054;-86
2021/12/19 03:11:12;;;;;;;30.23;16.30;;;8.70;99.90;;;6.87;100.00;102337.66;4970663;28;20050;-86
2021/12/19 03:17:56;;;;;;;35.28;18.98;;;8.70;99.90;;;6.89;100.00;102330.28;4969766;28;20059;-85
2021/12/19 03:19:10;;;;;;;33.28;18.08;;;8.70;99.90;;;6.88;100.00;102329.44;4968652;28;20640;-86
2021/12/19 03:21:37;;;;;;;31.20;17.83;;;8.70;99.90;;;6.94;100.00;102326.25;4969664;28;20038;-86
2021/12/19 03:24:05;;;;;;;33.10;18.67;;;8.70;99.90;;;6.89;100.00;102317.63;4970275;28;20129;-86
2021/12/19 03:26:34;;;;;;;33.70;18.00;;;8.70;99.90;;;6.96;100.00;102320.72;4970356;28;20066;-86
2021/12/19 03:29:01;;;;;;;37.03;18.23;;;8.70;99.90;;;6.87;100.00;102311.44;4970434;28;20046;-85
2021/12/19 03:31:29;;;;;;;33.05;18.58;;;8.70;99.90;;;6.94;100.00;102309.16;4970086;28;20125;-85
2021/12/19 03:33:56;;;;;;;30.83;17.50;;;8.70;99.90;;;6.90;100.00;102311.22;4970335;28;20078;-86
2021/12/19 03:36:23;;;;;;;27.00;14.88;;;8.70;99.90;;;6.94;100.00;102312.72;4968991;28;20050;-86
2021/12/19 03:38:57;;;;;;;24.08;13.65;;;8.70;99.90;;;6.96;100.00;102308.06;4970216;28;20081;-86
2021/12/19 03:41:33;;;;;;;24.65;13.25;;;8.70;99.90;;;6.86;100.00;102301.63;4969863;28;20047;-85
2021/12/19 03:44:03;;;;;;;24.98;13.52;;;8.70;99.90;;;6.88;100.00;102307.78;4970264;28;20038;-85
2021/12/19 03:46:31;;;;;;;22.58;12.73;;;8.70;99.90;;;6.89;100.00;102298.66;4967335;28;20134;-86
2021/12/19 03:48:58;;;;;;;23.77;12.30;;;8.70;99.90;;;6.94;100.00;102288.38;4968356;28;20042;-85
2021/12/19 03:51:26;;;;;;;24.48;13.20;;;8.70;99.90;;;6.92;100.00;102282.22;4968205;28;20058;-86
2021/12/19 03:53:53;;;;;;;27.88;14.48;;;8.70;99.90;;;6.92;100.00;102281.34;4968399;28;20050;-85
2021/12/19 03:56:21;;;;;;;26.75;14.15;;;8.70;99.90;;;6.89;100.00;102284.28;4967836;28;20133;-86
2021/12/19 03:58:48;;;;;;;30.38;15.52;;;8.70;99.90;;;6.82;100.00;102273.06;4969892;28;20046;-86
2021/12/19 04:01:17;;;;;;;28.70;15.15;;;8.70;99.90;;;6.85;100.00;102270.13;4968100;28;20525;-85
2021/12/19 04:03:46;;;;;;;30.92;15.57;;;8.70;99.90;;;6.90;100.00;102267.94;4965234;28;20117;-85
2021/12/19 04:06:13;;;;;;;32.20;16.60;;;8.70;99.90;;;6.91;100.00;102266.97;4968496;28;20043;-85
2021/12/19 04:08:41;;;;;;;26.73;15.85;;;8.70;99.90;;;6.94;100.00;102258.59;4969996;28;20050;-86
2021/12/19 04:11:08;;;;;;;29.95;15.75;;;8.80;99.90;;;6.96;100.00;102251.22;4968154;28;20137;-86
2021/12/19 04:13:36;;;;;;;29.70;16.10;;;8.70;99.90;;;6.94;100.00;102258.59;4968477;28;20838;-85
2021/12/19 04:16:03;;;;;;;31.50;16.20;;;8.70;99.90;;;6.86;100.00;102255.63;4970133;28;20047;-86
2021/12/19 04:18:32;;;;;;;33.63;17.42;;;8.80;99.90;;;6.86;100.00;102255.63;4968380;28;20050;-85
2021/12/19 04:21:00;;;;;;;34.67;17.77;;;8.70;99.90;;;6.91;100.00;102253.44;4969377;28;20146;-85
2021/12/19 04:23:30;;;;;;;38.13;19.63;;;8.80;99.90;;;6.94;100.00;102249.63;4968186;28;20050;-86
2021/12/19 04:25:58;;;;;;;38.35;19.35;;;8.80;99.90;;;6.91;100.00;102245.31;4969391;28;20046;-86
2021/12/19 04:28:25;;;;;;;42.25;20.63;;;9.00;99.90;;;6.92;100.00;102243.47;4969270;28;20231;-85
2021/12/19 04:30:53;;;;;;;42.35;20.70;;;8.80;99.90;;;6.92;100.00;102238.91;4967972;28;20452;-85
2021/12/19 04:33:22;;;;;;;39.03;19.83;;;8.80;99.90;;;6.91;100.00;102229.06;4967981;28;20121;-86
2021/12/19 04:35:51;;;;;;;45.38;22.00;;;8.80;99.90;;;6.96;100.00;102239.53;4967953;28;20047;-85
2021/12/19 04:38:55;;;;;;;47.08;22.65;;;8.80;99.90;;;6.97;100.00;102217.75;4967976;28;20046;-86
2021/12/19 04:55:11;;;;;;;31.23;13.98;;;8.70;99.90;;;6.66;100.00;102238.19;4926020;28;20058;-85
2021/12/19 04:57:45;;;;;;;24.55;12.77;;;8.60;99.90;;;6.65;100.00;102241.88;4968943;28;20054;-86
2021/12/19 05:00:17;;;;;;;23.73;11.90;;;8.60;99.90;;;6.68;100.00;102236.22;4969232;28;20658;-85
2021/12/19 05:02:50;;;;;;;22.33;10.35;;;8.60;99.90;;;6.70;100.00;102238.81;4969059;28;20054;-85
2021/12/19 05:16:22;;;;;;;15.60;8.55;;;8.50;99.90;;;6.56;100.00;102232.59;4971726;28;20065;-86
2021/12/19 05:18:51;;;;;;;17.83;8.85;;;8.50;99.90;;;6.51;100.00;102229.41;4970491;28;20046;-85
2021/12/19 05:21:24;;;;;;;16.02;8.10;;;8.50;99.90;;;6.33;100.00;102219.97;4972347;28;20411;-86
2021/12/19 05:24:21;;;;;;;15.60;8.15;;;8.50;99.90;;;6.37;100.00;102221.47;4971025;28;20051;-85
2021/12/19 05:26:49;;;;;;;17.42;8.05;;;8.40;99.90;;;6.30;100.00;102222.88;4971033;28;20435;-85
2021/12/19 05:29:18;;;;;;;15.77;7.40;;;8.40;99.90;;;6.29;100.00;102229.28;4972655;28;20134;-86
2021/12/19 05:31:45;;;;;;;15.55;7.78;;;8.30;99.90;;;6.30;100.00;102225.59;4970779;28;20074;-85
2021/12/19 05:34:13;;;;;;;16.05;7.68;;;8.30;99.90;;;6.15;100.00;102223.06;4970963;28;20046;-86
2021/12/19 05:47:38;;;;;;;12.85;5.45;;;8.40;99.90;;;6.32;100.00;102226.34;4971628;28;20043;-86
2021/12/19 05:50:06;;;;;;;9.40;4.75;;;8.20;99.90;;;6.38;100.00;102231.31;4971888;28;20506;-86
2021/12/19 05:52:34;;;;;;;10.75;4.90;;;8.20;99.90;;;6.38;100.00;102223.19;4971780;28;20039;-85
2021/12/19 05:55:03;;;;;;;10.55;4.60;;;8.30;99.90;;;6.33;100.00;102225.38;4972131;28;20146;-85
2021/12/19 05:57:31;;;;;;;12.00;4.88;;;8.40;99.90;;;6.30;100.00;102215.63;4972045;28;20145;-86
2021/12/19 06:02:35;;;;;;;11.95;5.13;;;8.20;99.90;;;6.32;100.00;102212.81;4989129;28;20081;-87
2021/12/19 06:05:05;;;;;;;12.55;5.35;;;8.20;99.90;;;6.30;100.00;102206.66;4991499;28;20042;-87
2021/12/19 06:07:32;;;;;;;11.13;5.20;;;8.20;99.90;;;6.26;100.00;102225.84;4989676;28;20129;-87
2021/12/19 06:10:00;;;;;;;13.38;5.82;;;8.20;99.90;;;6.23;100.00;102223.34;4991246;28;20066;-88
2021/12/19 06:12:28;;;;;;;11.50;5.60;;;8.20;99.90;;;6.28;100.00;102212.19;4973435;28;20051;-88
2021/12/19 06:14:56;;;;;;;12.48;5.70;;;8.20;99.90;;;6.26;100.00;102212.31;4991155;28;20047;-87
2021/12/19 06:17:23;;;;;;;13.23;5.65;;;8.10;99.90;;;6.25;100.00;102212.44;4991155;28;20048;-87
2021/12/19 06:19:50;;;;;;;13.98;6.03;;;8.10;99.90;;;6.25;100.00;102207.88;4990357;28;20526;-88
2021/12/19 06:22:18;;;;;;;13.55;6.25;;;8.20;99.90;;;6.22;100.00;102202.69;4990597;28;20610;-86
2021/12/19 06:24:45;;;;;;;12.90;5.65;;;8.20;99.90;;;6.21;100.00;102206.38;4991074;28;20121;-86
2021/12/19 06:27:12;;;;;;;12.70;5.97;;;8.20;99.90;;;6.26;100.00;102201.50;4990927;28;20168;-87
2021/12/19 06:29:41;;;;;;;12.75;6.25;;;8.20;99.90;;;6.19;100.00;102199.38;4991039;28;20491;-87
2021/12/19 06:32:08;;;;;;;13.40;6.28;;;8.10;99.90;;;6.18;100.00;102203.91;4990676;28;20146;-89
2021/12/19 06:34:35;;;;;;;13.93;5.95;;;8.10;99.90;;;6.16;100.00;102194.19;4985637;28;20121;-87
2021/12/19 06:37:08;;;;;;;17.70;8.15;;;8.10;99.90;;;6.17;100.00;102199.50;4983001;28;20130;-87
2021/12/19 06:39:36;;;;;;;20.40;9.15;;;8.10;99.90;;;6.19;100.00;102191.28;4991087;28;20050;-87
2021/12/19 06:42:05;;;;;;;18.65;8.65;;;8.10;99.90;;;6.24;100.00;102195.34;4990445;28;20070;-86
2021/12/19 06:44:33;;;;;;;17.63;8.57;;;8.10;99.90;;;6.28;100.00;102193.25;4990776;28;20042;-86
2021/12/19 06:47:04;;;;;;;17.05;8.27;;;8.10;99.90;;;6.29;100.00;102191.44;4990731;28;20078;-87
2021/12/19 06:49:32;;;;;;;15.93;7.78;;;8.10;99.90;;;6.31;100.00;102179.53;4990648;28;20069;-88
2021/12/19 06:51:59;;;;;;;18.35;8.40;;;8.20;99.90;;;6.31;100.00;102178.66;4986629;28;20042;-94
2021/12/19 07:23:40;;;;;;;19.60;9.52;;;8.20;99.90;;;6.39;100.00;102155.44;4006629;23;20112;-86
2021/12/19 07:26:08;;;;;;;23.35;9.90;;;8.20;99.90;;;6.39;100.00;102160.00;4989997;28;20097;-87
2021/12/19 07:28:35;;;;;;;23.92;11.30;;;8.20;99.90;;;6.34;100.00;102156.78;4988577;28;20042;-84
2021/12/19 07:31:03;;;;;;;23.08;10.15;;;8.20;99.90;;;6.34;100.00;102156.78;4972553;28;20055;-85
2021/12/19 07:33:30;;;;;;;22.75;10.80;;;8.20;99.90;;;6.31;100.00;102157.03;4970096;28;20050;-86
2021/12/19 07:35:59;;;;;;;27.23;11.57;;;8.20;99.90;;;6.32;100.00;102159.63;4970064;28;20604;-86
2021/12/19 07:38:31;;;;;;;26.77;11.43;;;8.30;99.90;;;6.40;100.00;102157.19;4970130;28;20602;-86
2021/12/19 07:41:02;;;;;;;29.10;13.48;;;8.30;99.90;;;6.33;100.00;102149.66;4969950;28;20105;-85
2021/12/19 07:43:30;;;;;;;37.42;15.05;;;8.30;99.90;;;6.33;100.00;102155.06;4970140;28;20460;-85
2021/12/19 07:45:57;;;;;;;40.20;18.02;;;8.30;99.90;;;6.37;100.00;102156.56;4976114;28;20074;-84
2021/12/19 07:48:24;;;;;;;35.28;16.52;;;8.30;99.90;;;6.37;100.00;102161.97;4963607;28;20067;-86
2021/12/19 07:50:52;;;;;;;37.00;18.38;;;8.30;99.90;;;6.33;100.00;102155.94;4969986;28;20070;-84
2021/12/19 07:53:19;;;;;;;36.08;17.48;;;8.30;99.90;;;6.32;100.00;102151.50;4969844;28;20053;-86
2021/12/19 07:55:46;;;;;;;35.20;17.27;;;8.30;99.90;;;6.30;100.00;102155.28;4970228;28;20150;-84
2021/12/19 07:58:15;;;;;;;40.97;18.15;;;8.30;99.90;;;6.36;100.00;102149.41;4984740;28;20954;-85
2021/12/19 08:00:43;;;;;;;35.15;17.73;;;8.30;99.90;;;6.38;100.00;102151.03;4969798;28;20055;-86
2021/12/19 08:03:11;;;;;;;33.60;17.30;;;8.30;99.90;;;6.45;100.00;102143.31;4968054;28;20056;-85
2021/12/19 08:05:38;;;;;;;35.22;16.23;;;8.30;99.90;;;6.42;100.00;102146.25;4969818;28;20121;-85
2021/12/19 08:08:05;;;;;;;33.08;16.52;;;8.30;99.90;;;6.49;100.00;102149.34;4968258;28;20117;-86
2021/12/19 08:13:20;;;;;;;31.13;15.00;;;8.30;99.90;;;6.39;100.00;102146.50;4959187;28;20049;-87
2021/12/19 08:15:47;;;;;;;33.03;16.42;;;8.30;99.90;;;6.31;100.00;102133.56;4969623;28;20145;-86
2021/12/19 08:18:14;;;;;;;32.65;15.63;;;8.30;99.90;;;6.33;100.00;102136.16;4969687;28;20122;-85
2021/12/19 08:20:42;;;;;;;31.20;15.57;;;8.30;99.90;;;6.34;100.00;102141.44;4969586;28;20065;-85
2021/12/19 08:23:09;;;;;;;30.35;15.57;;;8.30;99.90;;;6.37;100.00;102137.63;4969102;28;20094;-85
2021/12/19 08:25:36;;;;;;;31.85;14.98;;;8.30;99.90;;;6.33;100.00;102133.44;4969459;28;20121;-85
2021/12/19 08:28:04;;;;;;;33.53;15.90;;;8.50;99.90;;;6.39;100.00;102132.97;4969428;28;20117;-86
2021/12/19 08:30:32;;;;;;;33.80;15.25;;;8.30;99.90;;;6.33;100.00;102125.34;4969575;28;20632;-85
2021/12/19 08:33:00;;;;;;;30.25;15.15;;;8.30;99.90;;;6.37;100.00;102129.53;4967796;28;20045;-85
2021/12/19 08:35:27;;;;;;;28.00;15.77;;;8.30;99.90;;;6.41;100.00;102120.19;4961265;28;20102;-84
2021/12/19 08:37:54;;;;;;;29.00;15.30;;;8.30;99.90;;;6.38;100.00;102120.44;4969446;28;20049;-84
2021/12/19 08:40:23;;;;;;;30.35;16.23;;;8.30;99.90;;;6.42;100.00;102113.81;4969127;28;20078;-84
2021/12/19 08:42:52;;;;;;;30.77;14.30;;;8.30;99.90;;;6.44;100.00;102122.66;4971916;28;20457;-85
2021/12/19 08:45:20;;;;;;;27.83;14.75;;;8.30;99.90;;;6.42;100.00;102128.19;4973169;28;20042;-84
2021/12/19 08:47:49;;;;;;;29.50;14.98;;;8.30;99.90;;;6.38;100.00;102124.00;4971891;28;20046;-86
2021/12/19 08:50:18;;;;;;;29.17;15.43;;;8.30;99.90;;;6.44;100.00;102122.66;4979258;28;20057;-86
2021/12/19 08:52:46;;;;;;;27.70;15.55;;;8.30;99.90;;;6.41;100.00;102118.34;4992444;28;20042;-86
2021/12/19 08:55:13;;;;;;;27.33;15.60;;;8.40;99.90;;;6.39;100.00;102108.63;4992508;28;20053;-86
2021/12/19 08:57:40;;;;;;;27.40;16.00;;;8.30;99.90;;;6.39;100.00;102108.63;4992785;28;20852;-85
2021/12/19 09:00:11;;;;;;;27.30;15.18;;;8.40;99.90;;;6.44;100.00;102109.16;4993123;28;20043;-88
2021/12/19 09:02:41;;;;;;;25.90;14.77;;;8.40;99.90;;;6.47;100.00;102108.88;4991125;28;20805;-87
2021/12/19 09:05:10;;;;;;;28.05;14.68;;;8.40;99.90;;;6.47;100.00;102114.31;4992192;28;20042;-88
2021/12/19 09:07:39;;;;;;;27.33;14.52;;;8.40;99.90;;;6.44;100.00;102115.41;4992028;28;20133;-87
2021/12/19 09:10:08;;;;;;;28.35;15.23;;;8.40;99.90;;;6.49;100.00;102117.75;4990303;28;20046;-87
2021/12/19 09:12:36;;;;;;;30.98;15.35;;;8.40;99.90;;;6.54;100.00;102110.16;4965297;28;20074;-86
2021/12/19 09:15:06;;;;;;;27.15;14.55;;;8.40;99.90;;;6.59;100.00;102115.22;4972781;28;20106;-86
2021/12/19 09:17:33;;;;;;;23.65;13.82;;;8.40;99.90;;;6.59;100.00;102107.97;4973291;28;20149;-87
2021/12/19 09:20:00;;;;;;;24.02;13.90;;;8.40;99.90;;;6.45;100.00;102110.84;4973158;28;20046;-87
2021/12/19 09:22:29;;;;;;;20.02;11.30;;;8.40;99.90;;;6.52;100.00;102104.00;4972960;28;20046;-88
2021/12/19 09:24:57;;;;;;;19.70;10.63;;;8.40;99.90;;;6.58;100.00;102108.06;4971595;28;20471;-87
2021/12/19 09:27:24;;;;;;;18.27;10.75;;;8.50;99.90;;;6.64;100.00;102113.88;4987894;28;20051;-87
2021/12/19 09:29:51;;;;;;;19.40;11.02;;;8.50;99.90;;;6.61;100.00;102113.25;4987841;28;20054;-87
2021/12/19 09:32:19;;;;;;;19.30;10.75;;;8.50;99.90;;;6.64;100.00;102116.59;4964430;28;20080;-87
2021/12/19 09:34:46;;;;;;;19.88;11.68;;;8.50;99.90;;;6.70;100.00;102112.53;4970748;28;20503;-87
2021/12/19 09:37:15;;;;;;;17.55;9.27;;;8.50;99.90;;;6.74;100.00;102102.31;4987990;28;20618;-87
2021/12/19 09:39:44;;;;;;;16.77;10.13;;;8.50;99.90;;;6.74;100.00;102100.50;4973061;28;20074;-87
2021/12/19 09:42:14;;;;;;;18.70;10.15;;;8.50;99.90;;;6.77;100.00;102099.38;4972678;28;20124;-87
2021/12/19 09:44:41;;;;;;;20.50;11.00;;;8.50;99.90;;;6.69;100.00;102105.38;4972852;28;20377;-87
2021/12/19 09:47:09;;;;;;;20.05;11.40;;;8.50;99.90;;;6.67;100.00;102098.38;4967512;28;20405;-87
2021/12/19 09:49:37;;;;;;;22.95;12.32;;;8.50;99.90;;;6.69;100.00;102104.53;4968047;28;20478;-87
2021/12/19 09:52:08;;;;;;;23.55;14.63;;;8.50;99.90;;;6.64;100.00;102099.47;4987373;28;20153;-87
2021/12/19 09:54:36;;;;;;;25.48;15.23;;;8.50;99.90;;;6.68;100.00;102100.94;4971574;28;20142;-87
2021/12/19 09:57:06;;;;;;;27.08;15.05;;;8.50;99.90;;;6.72;100.00;102098.88;4972637;28;20041;-87
2021/12/19 09:59:33;;;;;;;26.40;15.10;;;8.50;99.90;;;6.72;100.00;102096.16;4971311;28;20109;-87
2021/12/19 10:02:01;;;;;;;26.88;15.32;;;8.50;99.90;;;6.75;100.00;102087.81;4971636;28;20353;-88
2021/12/19 10:04:39;;;;;;;26.33;15.75;;;8.50;99.90;;;6.77;100.00;102078.59;4972394;28;20129;-87
2021/12/19 10:07:17;;;;;;;25.90;15.13;;;8.60;99.90;;;6.76;100.00;102078.69;4987152;28;20053;-88
2021/12/19 10:10:00;;;;;;;29.38;15.63;;;8.50;99.90;;;6.90;100.00;102078.47;4971177;28;20062;-88
2021/12/19 10:12:48;;;;;;;24.75;14.57;;;8.60;99.90;;;6.84;100.00;102073.56;4970743;28;20126;-88
2021/12/19 10:15:19;;;;;;;27.08;15.48;;;8.60;99.90;;;6.87;100.00;102078.72;4961081;28;20448;-89
2021/12/19 10:17:47;;;;;;;27.20;16.25;;;8.60;99.90;;;6.85;100.00;102064.44;4953175;28;20522;-88
2021/12/19 10:20:19;;;;;;;25.40;15.20;;;8.60;99.90;;;6.79;100.00;102071.19;4953086;29;20047;-88
2021/12/19 10:22:49;;;;;;;28.48;15.35;;;8.70;99.90;;;6.79;100.00;102060.38;4952674;29;20043;-88
2021/12/19 10:25:21;;;;;;;27.73;15.57;;;8.60;99.90;;;6.82;100.00;102065.56;4953050;28;20125;-89
2021/12/19 10:27:53;;;;;;;29.55;15.45;;;8.60;99.90;;;6.87;100.00;102062.47;4952812;28;20122;-88
2021/12/19 10:30:26;;;;;;;33.80;14.35;;;8.60;99.90;;;6.93;100.00;102056.59;4951518;28;20134;-88
2021/12/19 10:32:58;;;;;;;28.92;15.27;;;8.90;99.90;;;6.97;100.00;102055.34;4964538;28;20869;-89
2021/12/19 10:35:30;;;;;;;31.88;15.05;;;8.70;99.90;;;6.96;100.00;102053.63;4955863;28;20475;-87
2021/12/19 10:37:59;;;;;;;31.17;14.45;;;8.70;99.90;;;6.94;100.00;102041.22;4962604;28;20563;-88
2021/12/19 10:40:28;;;;;;;25.58;14.68;;;8.70;99.90;;;6.91;100.00;102036.91;4971435;28;20138;-88
2021/12/19 10:43:01;;;;;;;25.50;14.05;;;8.80;99.90;;;6.86;100.00;102033.72;4971442;28;20511;-88
2021/12/19 10:45:34;;;;;;;28.67;13.45;;;8.70;99.90;;;6.93;100.00;102034.94;4970129;28;20046;-88
2021/12/19 10:48:34;;;;;;;27.80;11.88;;;8.70;99.90;;;6.94;100.00;102024.97;4970358;28;20051;-88
2021/12/19 10:51:05;;;;;;;17.73;8.85;;;8.70;99.90;;;6.83;100.00;102029.41;4953736;28;20039;-87
2021/12/19 10:53:37;;;;;;;14.48;8.00;;;8.80;99.90;;;6.87;100.00;102021.03;4971989;28;20134;-88
2021/12/19 10:56:11;;;;;;;15.70;7.90;;;8.70;99.90;;;6.84;100.00;102022.16;4971599;28;20057;-87
2021/12/19 10:58:45;;;;;;;14.02;7.50;;;8.70;99.90;;;6.85;100.00;102018.44;4971496;28;20522;-88
2021/12/19 11:01:25;;;;;;;12.57;7.18;;;8.70;99.90;;;6.87;100.00;102013.75;4970489;28;20051;-88
2021/12/19 11:04:03;;;;;;;12.25;6.63;;;8.70;99.90;;;6.76;100.00;102016.47;4971180;28;20059;-88
2021/12/19 11:06:39;;;;;;;11.50;5.97;;;8.70;99.90;;;6.69;100.00;102012.56;4971266;28;20054;-88
2021/12/19 11:09:11;;;;;;;10.82;5.70;;;8.70;99.90;;;6.73;100.00;102005.91;4971181;28;20097;-88
2021/12/19 11:11:51;;;;;;;7.65;4.47;;;8.70;99.90;;;6.63;100.00;102003.09;4963035;28;20047;-86
2021/12/19 11:14:23;;;;;;;9.77;4.50;;;8.70;99.90;;;6.67;100.00;101998.28;4965555;28;20126;-88
2021/12/19 11:16:53;;;;;;;8.80;4.22;;;8.70;99.90;;;6.74;100.00;102003.09;4969889;28;20527;-89
2021/12/19 11:19:21;;;;;;;8.38;3.67;;;8.60;99.90;;;6.80;100.00;101996.31;4970889;28;20077;-87
2021/12/19 11:21:48;;;;;;;5.63;3.03;;;8.70;99.90;;;6.74;100.00;101997.69;4970534;28;20497;-87
2021/12/19 11:24:18;;;;;;;6.20;2.78;;;8.60;99.90;;;6.78;100.00;101996.44;4969961;28;20078;-88
2021/12/19 11:26:49;;;;;;;5.05;2.30;;;8.70;99.90;;;6.84;100.00;101990.53;4965420;28;20601;-87
2021/12/19 11:29:17;;;;;;;5.25;2.03;;;8.70;99.90;;;6.83;100.00;101987.94;4953657;28;20050;-88
2021/12/19 11:31:51;;;;;;;3.45;1.77;;;8.70;99.90;;;6.79;100.00;101984.63;4965511;28;20125;-88
2021/12/19 11:34:27;;;;;;;3.70;1.40;;;8.60;99.90;;;6.86;100.00;101979.59;4968979;28;20074;-87
2021/12/19 11:37:03;;;;;;;2.92;1.30;;;8.60;99.90;;;6.84;100.00;101976.16;4969616;28;20074;-88
2021/12/19 11:39:34;;;;;;;5.45;1.60;;;8.70;99.90;;;6.82;100.00;101972.72;4970307;28;20046;-88
2021/12/19 11:42:09;;;;;;;4.32;2.22;;;8.70;99.90;;;6.81;100.00;101973.69;4967821;28;20070;-88
2021/12/19 11:44:48;;;;;;;5.25;2.67;;;8.60;99.90;;;6.84;100.00;101976.16;4967360;28;20043;-88
2021/12/19 11:47:38;;;;;;;5.18;2.50;;;8.70;99.90;;;6.88;100.00;101971.34;4983681;28;20141;-87